SBU264 TNCM-TFFJ
Flight info
| Callsign | SBU264 |
|---|---|
| Flight time | 0h 9m |
| Altitude | 3000 |
| Route | DCT PJM |
| Aircraft | C208/L-SDFGR/C |
Departure
| Time | 2026-05-05 18:19 |
|---|---|
| Airport | Princess Juliana International Airport (TNCM) |
Arrival
| Time | 2026-05-05 18:29 |
|---|---|
| Airport | St. Jean Airport (TFFJ) |
| Time | Latitude | Longitude | Altitude | Speed | Heading |
|---|---|---|---|---|---|
| 2026-05-05 17:51 | 18.04246 | -63.11156 | 27 ft | 0 kts | 168° |
| 2026-05-05 18:11 | 18.04239 | -63.11157 | 27 ft | 5 kts | 214° |
| 2026-05-05 18:11 | 18.04218 | -63.11228 | 27 ft | 14 kts | 257° |
| 2026-05-05 18:11 | 18.04235 | -63.11339 | 27 ft | 18 kts | 292° |
| 2026-05-05 18:12 | 18.04218 | -63.11475 | 27 ft | 19 kts | 242° |
| 2026-05-05 18:12 | 18.04149 | -63.11563 | 27 ft | 12 kts | 228° |
| 2026-05-05 18:12 | 18.04107 | -63.11619 | 27 ft | 7 kts | 234° |
| 2026-05-05 18:12 | 18.04082 | -63.11653 | 27 ft | 6 kts | 232° |
| 2026-05-05 18:13 | 18.04054 | -63.11664 | 26 ft | 1 kts | 120° |
| 2026-05-05 18:17 | 18.04040 | -63.11653 | 30 ft | 9 kts | 174° |
| 2026-05-05 18:17 | 18.03985 | -63.11636 | 26 ft | 6 kts | 79° |
| 2026-05-05 18:18 | 18.03986 | -63.11632 | 26 ft | 0 kts | 80° |
| 2026-05-05 18:18 | 18.03987 | -63.11623 | 26 ft | 6 kts | 82° |
| 2026-05-05 18:18 | 18.04006 | -63.11500 | 26 ft | 37 kts | 84° |
| 2026-05-05 18:19 | 18.04068 | -63.11064 | 27 ft | 82 kts | 79° |
| 2026-05-05 18:19 | 18.04168 | -63.10372 | 149 ft | 103 kts | 86° |
| 2026-05-05 18:19 | 18.04238 | -63.09602 | 423 ft | 106 kts | 97° |
| 2026-05-05 18:19 | 18.03955 | -63.08922 | 695 ft | 105 kts | 135° |
| 2026-05-05 18:20 | 18.03297 | -63.08511 | 825 ft | 113 kts | 151° |
| 2026-05-05 18:20 | 18.02812 | -63.08260 | 904 ft | 117 kts | 148° |
| 2026-05-05 18:20 | 18.02061 | -63.07469 | 1049 ft | 118 kts | 120° |
| 2026-05-05 18:20 | 18.01651 | -63.06753 | 1176 ft | 115 kts | 122° |
| 2026-05-05 18:21 | 18.01383 | -63.06276 | 1257 ft | 114 kts | 119° |
| 2026-05-05 18:21 | 18.01013 | -63.05533 | 1422 ft | 109 kts | 118° |
| 2026-05-05 18:21 | 18.00669 | -63.04851 | 1633 ft | 107 kts | 118° |
| 2026-05-05 18:21 | 18.00314 | -63.04147 | 1819 ft | 111 kts | 118° |
| 2026-05-05 18:22 | 17.99952 | -63.03432 | 2012 ft | 111 kts | 118° |
| 2026-05-05 18:22 | 17.99591 | -63.02713 | 2214 ft | 111 kts | 117° |
| 2026-05-05 18:22 | 17.99234 | -63.01997 | 2414 ft | 110 kts | 119° |
| 2026-05-05 18:22 | 17.98872 | -63.01284 | 2610 ft | 111 kts | 118° |
| 2026-05-05 18:23 | 17.98513 | -63.00563 | 2812 ft | 111 kts | 117° |
| 2026-05-05 18:23 | 17.98151 | -62.99838 | 3013 ft | 112 kts | 118° |
| 2026-05-05 18:23 | 17.97771 | -62.99086 | 3084 ft | 124 kts | 118° |
| 2026-05-05 18:23 | 17.97355 | -62.98259 | 3093 ft | 131 kts | 117° |
| 2026-05-05 18:24 | 17.96931 | -62.97409 | 3056 ft | 133 kts | 118° |
| 2026-05-05 18:24 | 17.96502 | -62.96540 | 3036 ft | 135 kts | 118° |
| 2026-05-05 18:24 | 17.96062 | -62.95675 | 3036 ft | 134 kts | 118° |
| 2026-05-05 18:24 | 17.95629 | -62.94814 | 3038 ft | 133 kts | 118° |
| 2026-05-05 18:25 | 17.95202 | -62.93958 | 3038 ft | 132 kts | 118° |
| 2026-05-05 18:25 | 17.94919 | -62.93391 | 3037 ft | 132 kts | 118° |
| 2026-05-05 18:25 | 17.94338 | -62.92248 | 2944 ft | 131 kts | 117° |
| 2026-05-05 18:25 | 17.93900 | -62.91423 | 2817 ft | 129 kts | 129° |
| 2026-05-05 18:26 | 17.93093 | -62.91001 | 2585 ft | 130 kts | 159° |
| 2026-05-05 18:26 | 17.92251 | -62.90776 | 2317 ft | 124 kts | 167° |
| 2026-05-05 18:26 | 17.91420 | -62.90602 | 2052 ft | 118 kts | 161° |
| 2026-05-05 18:26 | 17.90628 | -62.90388 | 1783 ft | 114 kts | 161° |
| 2026-05-05 18:27 | 17.89888 | -62.90192 | 1504 ft | 107 kts | 161° |
| 2026-05-05 18:27 | 17.89325 | -62.89783 | 1218 ft | 100 kts | 111° |
| 2026-05-05 18:27 | 17.89388 | -62.89071 | 954 ft | 101 kts | 76° |
| 2026-05-05 18:27 | 17.89570 | -62.88384 | 825 ft | 93 kts | 79° |
| 2026-05-05 18:28 | 17.89973 | -62.86825 | 740 ft | 117 kts | 75° |
| 2026-05-05 18:28 | 17.90169 | -62.86002 | 536 ft | 114 kts | 81° |
| 2026-05-05 18:28 | 17.90379 | -62.85252 | 335 ft | 94 kts | 77° |
| 2026-05-05 18:29 | 17.90433 | -62.84614 | 58 ft | 89 kts | 94° |
| 2026-05-05 18:29 | 17.90447 | -62.84123 | 14 ft | 27 kts | 85° |
| 2026-05-05 18:29 | 17.90453 | -62.84080 | 14 ft | 5 kts | 255° |
| 2026-05-05 18:29 | 17.90446 | -62.84140 | 15 ft | 14 kts | 268° |
| 2026-05-05 18:30 | 17.90442 | -62.84274 | 22 ft | 20 kts | 267° |
| 2026-05-05 18:30 | 17.90431 | -62.84382 | 31 ft | 9 kts | 213° |
| 2026-05-05 18:30 | 17.90393 | -62.84414 | 33 ft | 7 kts | 265° |
| 2026-05-05 18:30 | 17.90393 | -62.84469 | 37 ft | 8 kts | 268° |
| 2026-05-05 18:31 | 17.90373 | -62.84486 | 39 ft | 1 kts | 122° |
| 2026-05-05 18:31 | 17.90373 | -62.84473 | 37 ft | 0 kts | 86° |